sensor_id;sensor_type;location;lat;lon;timestamp;noise_LAeq;noise_LA_min;noise_LA_max;noise_LA01;noise_LA95
63692;Laerm;49838;51.798;10.954;2023-03-01T07:41:09;54.74;41.70;70.65;;
63692;Laerm;49838;51.798;10.954;2023-03-01T07:43:36;53.89;40.60;71.31;;
63692;Laerm;49838;51.798;10.954;2023-03-01T07:46:04;54.92;39.20;68.76;;
63692;Laerm;49838;51.798;10.954;2023-03-01T07:48:32;57.56;37.95;74.23;;
63692;Laerm;49838;51.798;10.954;2023-03-01T07:51:01;58.25;38.97;73.42;;
63692;Laerm;49838;51.798;10.954;2023-03-01T07:53:28;57.28;39.62;71.31;;
63692;Laerm;49838;51.798;10.954;2023-03-01T07:56:01;60.02;43.20;76.21;;
63692;Laerm;49838;51.798;10.954;2023-03-01T07:58:30;59.45;42.48;72.18;;
63692;Laerm;49838;51.798;10.954;2023-03-01T08:01:01;59.21;42.05;76.12;;
63692;Laerm;49838;51.798;10.954;2023-03-01T08:03:31;53.40;38.92;69.89;;
63692;Laerm;49838;51.798;10.954;2023-03-01T08:05:59;61.33;40.78;75.16;;
63692;Laerm;49838;51.798;10.954;2023-03-01T08:08:27;56.54;41.14;67.94;;
63692;Laerm;49838;51.798;10.954;2023-03-01T08:10:56;66.80;63.26;78.08;;
63692;Laerm;49838;51.798;10.954;2023-03-01T08:13:24;71.76;54.07;89.51;;
63692;Laerm;49838;51.798;10.954;2023-03-01T08:15:53;66.28;49.04;79.62;;
63692;Laerm;49838;51.798;10.954;2023-03-01T08:18:21;59.35;39.56;76.94;;
63692;Laerm;49838;51.798;10.954;2023-03-01T08:20:48;58.61;37.70;73.21;;
63692;Laerm;49838;51.798;10.954;2023-03-01T08:23:15;57.99;37.78;74.70;;
63692;Laerm;49838;51.798;10.954;2023-03-01T08:25:42;59.39;38.10;72.87;;
63692;Laerm;49838;51.798;10.954;2023-03-01T08:28:09;55.46;39.89;69.49;;
63692;Laerm;49838;51.798;10.954;2023-03-01T08:30:37;60.20;39.40;73.59;;
63692;Laerm;49838;51.798;10.954;2023-03-01T08:33:05;59.10;37.55;75.10;;
63692;Laerm;49838;51.798;10.954;2023-03-01T08:35:32;57.74;38.79;77.98;;
63692;Laerm;49838;51.798;10.954;2023-03-01T08:38:00;54.13;38.45;71.24;;
63692;Laerm;49838;51.798;10.954;2023-03-01T08:40:27;59.42;39.22;72.83;;
63692;Laerm;49838;51.798;10.954;2023-03-01T08:42:54;58.83;39.85;72.38;;
63692;Laerm;49838;51.798;10.954;2023-03-01T08:45:21;60.19;38.84;75.22;;
63692;Laerm;49838;51.798;10.954;2023-03-01T08:47:52;60.42;40.00;76.39;;
63692;Laerm;49838;51.798;10.954;2023-03-01T08:50:20;59.71;38.73;71.89;;
63692;Laerm;49838;51.798;10.954;2023-03-01T08:52:48;58.94;38.17;81.80;;
63692;Laerm;49838;51.798;10.954;2023-03-01T08:55:16;58.08;39.35;71.46;;
63692;Laerm;49838;51.798;10.954;2023-03-01T08:57:43;60.10;40.07;74.12;;
63692;Laerm;49838;51.798;10.954;2023-03-01T09:00:11;56.07;39.45;72.05;;
63692;Laerm;49838;51.798;10.954;2023-03-01T09:02:41;59.27;38.25;80.33;;
63692;Laerm;49838;51.798;10.954;2023-03-01T09:05:08;57.08;40.33;70.01;;
63692;Laerm;49838;51.798;10.954;2023-03-01T09:07:37;53.72;38.37;68.27;;
63692;Laerm;49838;51.798;10.954;2023-03-01T09:10:05;61.28;42.79;74.94;;
63692;Laerm;49838;51.798;10.954;2023-03-01T09:12:32;62.19;38.96;75.89;;
63692;Laerm;49838;51.798;10.954;2023-03-01T09:15:00;57.32;37.44;72.46;;
63692;Laerm;49838;51.798;10.954;2023-03-01T09:17:27;58.07;39.52;76.93;;
63692;Laerm;49838;51.798;10.954;2023-03-01T09:19:54;58.66;39.04;73.35;;
63692;Laerm;49838;51.798;10.954;2023-03-01T09:22:21;54.88;37.23;69.91;;
63692;Laerm;49838;51.798;10.954;2023-03-01T09:24:50;64.44;38.31;82.03;;
63692;Laerm;49838;51.798;10.954;2023-03-01T09:27:17;59.63;37.25;81.67;;
63692;Laerm;49838;51.798;10.954;2023-03-01T09:29:45;58.49;36.67;76.23;;
63692;Laerm;49838;51.798;10.954;2023-03-01T09:32:12;58.29;37.29;72.65;;
63692;Laerm;49838;51.798;10.954;2023-03-01T09:34:39;62.61;38.58;78.85;;
63692;Laerm;49838;51.798;10.954;2023-03-01T09:37:20;63.29;38.97;82.66;;
63692;Laerm;49838;51.798;10.954;2023-03-01T09:39:49;60.94;38.09;75.44;;
63692;Laerm;49838;51.798;10.954;2023-03-01T09:42:16;64.03;38.05;81.25;;
63692;Laerm;49838;51.798;10.954;2023-03-01T09:44:47;50.06;37.61;67.47;;
63692;Laerm;49838;51.798;10.954;2023-03-01T09:47:18;44.89;38.26;67.54;;
63692;Laerm;49838;51.798;10.954;2023-03-01T09:49:55;61.77;38.61;80.81;;
63692;Laerm;49838;51.798;10.954;2023-03-01T09:52:29;59.74;39.45;75.87;;
63692;Laerm;49838;51.798;10.954;2023-03-01T09:54:59;61.28;39.98;79.45;;
63692;Laerm;49838;51.798;10.954;2023-03-01T09:57:32;62.97;39.80;76.64;;
63692;Laerm;49838;51.798;10.954;2023-03-01T10:00:26;58.00;39.36;69.82;;
63692;Laerm;49838;51.798;10.954;2023-03-01T10:02:59;58.70;40.49;72.76;;
63692;Laerm;49838;51.798;10.954;2023-03-01T10:05:35;52.59;38.63;70.06;;
63692;Laerm;49838;51.798;10.954;2023-03-01T10:08:18;57.08;39.08;71.18;;
63692;Laerm;49838;51.798;10.954;2023-03-01T10:10:51;57.17;37.39;69.53;;
63692;Laerm;49838;51.798;10.954;2023-03-01T10:13:22;64.15;40.10;82.02;;
63692;Laerm;49838;51.798;10.954;2023-03-01T10:15:54;55.50;42.91;70.60;;
63692;Laerm;49838;51.798;10.954;2023-03-01T10:18:25;59.98;39.23;76.69;;
63692;Laerm;49838;51.798;10.954;2023-03-01T10:20:57;59.47;43.54;74.10;;
63692;Laerm;49838;51.798;10.954;2023-03-01T10:23:26;51.46;40.15;67.98;;
63692;Laerm;49838;51.798;10.954;2023-03-01T10:26:13;58.07;41.87;73.25;;
63692;Laerm;49838;51.798;10.954;2023-03-01T10:28:50;58.97;42.20;71.75;;
63692;Laerm;49838;51.798;10.954;2023-03-01T10:31:23;55.01;41.98;68.72;;
63692;Laerm;49838;51.798;10.954;2023-03-01T10:33:54;62.28;41.78;80.68;;
63692;Laerm;49838;51.798;10.954;2023-03-01T10:36:23;63.57;43.04;76.33;;
63692;Laerm;49838;51.798;10.954;2023-03-01T10:38:52;60.49;43.81;76.20;;
63692;Laerm;49838;51.798;10.954;2023-03-01T10:41:23;68.47;45.74;84.56;;
63692;Laerm;49838;51.798;10.954;2023-03-01T10:43:53;61.57;45.66;82.19;;
63692;Laerm;49838;51.798;10.954;2023-03-01T10:46:25;63.47;44.86;79.24;;
63692;Laerm;49838;51.798;10.954;2023-03-01T10:49:06;55.95;39.00;69.58;;
63692;Laerm;49838;51.798;10.954;2023-03-01T10:51:34;58.67;39.55;79.21;;
63692;Laerm;49838;51.798;10.954;2023-03-01T10:54:02;60.39;42.83;74.38;;
63692;Laerm;49838;51.798;10.954;2023-03-01T10:56:46;59.65;39.83;75.46;;
63692;Laerm;49838;51.798;10.954;2023-03-01T10:59:22;61.30;38.58;74.58;;
63692;Laerm;49838;51.798;10.954;2023-03-01T11:02:15;51.90;39.94;70.08;;
63692;Laerm;49838;51.798;10.954;2023-03-01T11:04:57;55.32;39.16;71.15;;
63692;Laerm;49838;51.798;10.954;2023-03-01T11:07:24;57.15;39.72;72.60;;
63692;Laerm;49838;51.798;10.954;2023-03-01T11:09:52;59.59;40.80;76.04;;
63692;Laerm;49838;51.798;10.954;2023-03-01T11:12:20;59.87;42.63;74.09;;
63692;Laerm;49838;51.798;10.954;2023-03-01T11:14:50;54.93;41.29;71.26;;
63692;Laerm;49838;51.798;10.954;2023-03-01T11:17:23;57.90;40.02;76.76;;
63692;Laerm;49838;51.798;10.954;2023-03-01T11:20:05;56.39;40.71;72.33;;
63692;Laerm;49838;51.798;10.954;2023-03-01T11:22:34;57.44;39.95;69.43;;
63692;Laerm;49838;51.798;10.954;2023-03-01T11:25:02;53.41;40.32;70.32;;
63692;Laerm;49838;51.798;10.954;2023-03-01T11:27:34;55.82;40.55;70.68;;
63692;Laerm;49838;51.798;10.954;2023-03-01T11:30:06;54.91;41.72;71.07;;
63692;Laerm;49838;51.798;10.954;2023-03-01T11:32:41;55.07;41.99;69.19;;
63692;Laerm;49838;51.798;10.954;2023-03-01T11:35:15;58.84;42.14;76.02;;
63692;Laerm;49838;51.798;10.954;2023-03-01T11:37:56;59.46;43.29;73.90;;
63692;Laerm;49838;51.798;10.954;2023-03-01T11:40:29;58.17;40.75;70.98;;
63692;Laerm;49838;51.798;10.954;2023-03-01T11:43:06;55.63;40.59;72.32;;
63692;Laerm;49838;51.798;10.954;2023-03-01T11:45:46;59.62;42.59;75.39;;
63692;Laerm;49838;51.798;10.954;2023-03-01T11:48:31;59.43;39.34;73.90;;
63692;Laerm;49838;51.798;10.954;2023-03-01T11:51:05;55.52;40.66;71.23;;
63692;Laerm;49838;51.798;10.954;2023-03-01T11:54:02;57.71;41.44;71.56;;
63692;Laerm;49838;51.798;10.954;2023-03-01T11:56:34;57.39;41.28;73.03;;
63692;Laerm;49838;51.798;10.954;2023-03-01T11:59:23;62.04;39.36;79.40;;
63692;Laerm;49838;51.798;10.954;2023-03-01T12:02:16;57.96;41.29;73.41;;
63692;Laerm;49838;51.798;10.954;2023-03-01T12:05:03;55.98;40.75;74.83;;
63692;Laerm;49838;51.798;10.954;2023-03-01T12:07:37;57.00;41.35;74.34;;
63692;Laerm;49838;51.798;10.954;2023-03-01T12:10:23;50.36;41.13;64.09;;
63692;Laerm;49838;51.798;10.954;2023-03-01T12:13:02;58.91;40.09;74.16;;
63692;Laerm;49838;51.798;10.954;2023-03-01T12:15:41;64.54;41.20;82.19;;
63692;Laerm;49838;51.798;10.954;2023-03-01T12:18:46;60.34;40.26;80.12;;
63692;Laerm;49838;51.798;10.954;2023-03-01T12:21:28;57.47;41.59;78.40;;
63692;Laerm;49838;51.798;10.954;2023-03-01T12:24:10;57.92;41.89;73.76;;
63692;Laerm;49838;51.798;10.954;2023-03-01T12:26:47;58.14;43.69;72.34;;
63692;Laerm;49838;51.798;10.954;2023-03-01T12:29:24;59.40;40.97;72.67;;
63692;Laerm;49838;51.798;10.954;2023-03-01T12:32:09;57.85;43.06;72.94;;
63692;Laerm;49838;51.798;10.954;2023-03-01T12:34:53;61.91;42.55;84.15;;
63692;Laerm;49838;51.798;10.954;2023-03-01T12:37:30;63.59;44.97;79.25;;
63692;Laerm;49838;51.798;10.954;2023-03-01T12:40:15;55.38;42.81;69.25;;
63692;Laerm;49838;51.798;10.954;2023-03-01T12:42:54;65.44;42.64;82.25;;
63692;Laerm;49838;51.798;10.954;2023-03-01T12:45:40;57.36;43.54;75.46;;
63692;Laerm;49838;51.798;10.954;2023-03-01T12:48:26;57.18;41.12;74.03;;
63692;Laerm;49838;51.798;10.954;2023-03-01T12:51:01;58.13;41.44;74.56;;
63692;Laerm;49838;51.798;10.954;2023-03-01T12:53:32;60.11;41.85;79.60;;
63692;Laerm;49838;51.798;10.954;2023-03-01T12:56:06;60.19;40.27;75.96;;
63692;Laerm;49838;51.798;10.954;2023-03-01T12:58:38;54.45;39.67;81.41;;
63692;Laerm;49838;51.798;10.954;2023-03-01T13:01:18;60.03;43.80;84.69;;
63692;Laerm;49838;51.798;10.954;2023-03-01T13:04:05;55.36;40.76;69.97;;
63692;Laerm;49838;51.798;10.954;2023-03-01T13:06:43;53.95;40.65;71.38;;
63692;Laerm;49838;51.798;10.954;2023-03-01T13:09:19;59.07;39.78;72.38;;
63692;Laerm;49838;51.798;10.954;2023-03-01T13:11:52;58.31;41.89;78.50;;
63692;Laerm;49838;51.798;10.954;2023-03-01T13:14:35;55.33;41.58;73.87;;
63692;Laerm;49838;51.798;10.954;2023-03-01T13:17:03;53.39;39.20;70.36;;
63692;Laerm;49838;51.798;10.954;2023-03-01T13:19:32;60.43;43.76;75.35;;
63692;Laerm;49838;51.798;10.954;2023-03-01T13:22:26;52.72;42.98;76.25;;
63692;Laerm;49838;51.798;10.954;2023-03-01T13:25:02;60.54;44.40;75.31;;
63692;Laerm;49838;51.798;10.954;2023-03-01T13:27:30;68.60;41.50;88.95;;
63692;Laerm;49838;51.798;10.954;2023-03-01T13:29:59;58.20;40.07;72.84;;
63692;Laerm;49838;51.798;10.954;2023-03-01T13:32:30;60.19;39.92;80.02;;
63692;Laerm;49838;51.798;10.954;2023-03-01T13:34:59;57.35;41.60;74.44;;
63692;Laerm;49838;51.798;10.954;2023-03-01T13:37:34;57.66;42.18;70.86;;
63692;Laerm;49838;51.798;10.954;2023-03-01T13:42:52;55.78;42.96;71.14;;
63692;Laerm;49838;51.798;10.954;2023-03-01T13:45:23;55.68;42.17;70.29;;
63692;Laerm;49838;51.798;10.954;2023-03-01T13:47:55;57.79;44.25;75.26;;
63692;Laerm;49838;51.798;10.954;2023-03-01T13:50:25;57.17;39.76;73.11;;
63692;Laerm;49838;51.798;10.954;2023-03-01T13:52:58;60.81;41.92;74.37;;
63692;Laerm;49838;51.798;10.954;2023-03-01T13:55:32;62.30;43.44;75.59;;
63692;Laerm;49838;51.798;10.954;2023-03-01T13:58:14;56.74;41.76;71.09;;
63692;Laerm;49838;51.798;10.954;2023-03-01T14:00:41;61.62;43.15;74.01;;
63692;Laerm;49838;51.798;10.954;2023-03-01T14:03:11;58.66;38.92;73.58;;
63692;Laerm;49838;51.798;10.954;2023-03-01T14:05:40;56.22;43.00;71.88;;
63692;Laerm;49838;51.798;10.954;2023-03-01T14:08:21;59.47;42.33;75.18;;
63692;Laerm;49838;51.798;10.954;2023-03-01T14:11:29;60.08;38.37;75.05;;
63692;Laerm;49838;51.798;10.954;2023-03-01T14:14:12;55.61;40.40;68.02;;
63692;Laerm;49838;51.798;10.954;2023-03-01T14:16:48;58.91;40.56;73.42;;
63692;Laerm;49838;51.798;10.954;2023-03-01T14:19:23;59.35;42.06;74.70;;
63692;Laerm;49838;51.798;10.954;2023-03-01T14:21:59;61.87;43.85;78.66;;
63692;Laerm;49838;51.798;10.954;2023-03-01T14:24:31;57.26;44.34;73.91;;
63692;Laerm;49838;51.798;10.954;2023-03-01T14:27:00;58.15;42.49;71.71;;
63692;Laerm;49838;51.798;10.954;2023-03-01T14:29:36;57.65;40.39;78.64;;
63692;Laerm;49838;51.798;10.954;2023-03-01T14:32:12;58.50;42.16;72.82;;
63692;Laerm;49838;51.798;10.954;2023-03-01T14:34:44;61.35;44.25;76.29;;
63692;Laerm;49838;51.798;10.954;2023-03-01T14:37:19;56.57;43.70;71.24;;
63692;Laerm;49838;51.798;10.954;2023-03-01T14:39:48;54.01;44.56;68.45;;
63692;Laerm;49838;51.798;10.954;2023-03-01T14:42:16;60.07;45.12;75.98;;
63692;Laerm;49838;51.798;10.954;2023-03-01T14:44:47;54.21;42.29;70.36;;
63692;Laerm;49838;51.798;10.954;2023-03-01T14:47:16;57.33;43.73;70.55;;
63692;Laerm;49838;51.798;10.954;2023-03-01T14:49:48;57.08;41.58;73.98;;
63692;Laerm;49838;51.798;10.954;2023-03-01T14:52:20;58.70;42.05;71.39;;
63692;Laerm;49838;51.798;10.954;2023-03-01T14:54:52;57.12;41.84;71.21;;
63692;Laerm;49838;51.798;10.954;2023-03-01T14:57:22;54.83;40.65;70.53;;
63692;Laerm;49838;51.798;10.954;2023-03-01T14:59:49;62.37;43.75;77.75;;
63692;Laerm;49838;51.798;10.954;2023-03-01T15:02:22;59.81;44.10;74.34;;
63692;Laerm;49838;51.798;10.954;2023-03-01T15:04:51;56.63;42.45;71.18;;
63692;Laerm;49838;51.798;10.954;2023-03-01T15:07:19;58.91;43.22;74.26;;
63692;Laerm;49838;51.798;10.954;2023-03-01T15:09:48;61.40;44.34;72.43;;
63692;Laerm;49838;51.798;10.954;2023-03-01T15:12:36;60.19;45.93;74.63;;
63692;Laerm;49838;51.798;10.954;2023-03-01T15:15:19;57.68;43.77;71.06;;
63692;Laerm;49838;51.798;10.954;2023-03-01T15:17:52;58.77;42.61;72.21;;
63692;Laerm;49838;51.798;10.954;2023-03-01T15:20:23;59.68;43.85;75.09;;
63692;Laerm;49838;51.798;10.954;2023-03-01T15:22:52;62.00;43.60;83.12;;
63692;Laerm;49838;51.798;10.954;2023-03-01T15:25:23;59.47;45.14;73.94;;
63692;Laerm;49838;51.798;10.954;2023-03-01T15:27:52;57.29;43.97;70.91;;
63692;Laerm;49838;51.798;10.954;2023-03-01T15:30:22;59.58;44.38;73.41;;
63692;Laerm;49838;51.798;10.954;2023-03-01T15:33:19;63.59;43.56;83.01;;
63692;Laerm;49838;51.798;10.954;2023-03-01T15:35:48;60.31;44.26;73.15;;
63692;Laerm;49838;51.798;10.954;2023-03-01T15:38:27;57.09;43.29;73.29;;
63692;Laerm;49838;51.798;10.954;2023-03-01T15:40:57;62.83;46.62;77.39;;
63692;Laerm;49838;51.798;10.954;2023-03-01T15:43:41;58.47;43.19;73.53;;
63692;Laerm;49838;51.798;10.954;2023-03-01T15:46:17;59.52;42.44;73.25;;
63692;Laerm;49838;51.798;10.954;2023-03-01T15:48:47;59.28;44.37;74.67;;
63692;Laerm;49838;51.798;10.954;2023-03-01T15:51:15;65.60;43.19;86.17;;
63692;Laerm;49838;51.798;10.954;2023-03-01T15:53:49;60.58;44.59;75.47;;
63692;Laerm;49838;51.798;10.954;2023-03-01T15:56:18;60.64;43.08;74.58;;
63692;Laerm;49838;51.798;10.954;2023-03-01T15:58:46;58.78;43.45;73.21;;
63692;Laerm;49838;51.798;10.954;2023-03-01T16:01:14;57.68;41.74;73.00;;
63692;Laerm;49838;51.798;10.954;2023-03-01T16:03:43;57.59;40.33;74.62;;
63692;Laerm;49838;51.798;10.954;2023-03-01T16:06:10;64.81;41.96;84.09;;
63692;Laerm;49838;51.798;10.954;2023-03-01T16:08:38;57.49;42.62;72.37;;
63692;Laerm;49838;51.798;10.954;2023-03-01T16:11:13;55.04;41.73;67.62;;
63692;Laerm;49838;51.798;10.954;2023-03-01T16:13:43;57.93;41.10;73.49;;
63692;Laerm;49838;51.798;10.954;2023-03-01T16:16:12;57.78;41.52;70.01;;
63692;Laerm;49838;51.798;10.954;2023-03-01T16:18:44;60.72;41.88;73.70;;
63692;Laerm;49838;51.798;10.954;2023-03-01T16:21:14;60.68;40.30;80.03;;
63692;Laerm;49838;51.798;10.954;2023-03-01T16:23:43;57.36;41.53;72.52;;
63692;Laerm;49838;51.798;10.954;2023-03-01T16:26:10;55.76;41.77;68.65;;
63692;Laerm;49838;51.798;10.954;2023-03-01T16:28:39;56.55;40.87;70.78;;
63692;Laerm;49838;51.798;10.954;2023-03-01T16:31:08;58.64;42.39;73.32;;
63692;Laerm;49838;51.798;10.954;2023-03-01T16:33:36;62.11;41.94;77.89;;
63692;Laerm;49838;51.798;10.954;2023-03-01T16:36:08;56.00;42.95;68.66;;
63692;Laerm;49838;51.798;10.954;2023-03-01T16:38:36;59.97;42.93;77.61;;
63692;Laerm;49838;51.798;10.954;2023-03-01T16:41:04;57.56;41.14;71.80;;
63692;Laerm;49838;51.798;10.954;2023-03-01T16:43:33;57.60;42.23;72.21;;
63692;Laerm;49838;51.798;10.954;2023-03-01T16:46:00;59.72;41.98;74.42;;
63692;Laerm;49838;51.798;10.954;2023-03-01T16:48:31;57.41;43.49;73.35;;
63692;Laerm;49838;51.798;10.954;2023-03-01T16:50:59;57.37;42.48;74.35;;
63692;Laerm;49838;51.798;10.954;2023-03-01T16:53:27;55.02;39.98;69.54;;
63692;Laerm;49838;51.798;10.954;2023-03-01T16:55:55;59.46;43.54;73.80;;
63692;Laerm;49838;51.798;10.954;2023-03-01T16:58:22;60.12;43.91;74.12;;
63692;Laerm;49838;51.798;10.954;2023-03-01T17:00:51;59.25;44.15;71.97;;
63692;Laerm;49838;51.798;10.954;2023-03-01T17:03:19;61.00;45.46;75.28;;
63692;Laerm;49838;51.798;10.954;2023-03-01T17:05:48;60.74;43.24;74.53;;
63692;Laerm;49838;51.798;10.954;2023-03-01T17:08:17;54.55;43.00;70.74;;
63692;Laerm;49838;51.798;10.954;2023-03-01T17:10:45;59.28;43.33;70.36;;
63692;Laerm;49838;51.798;10.954;2023-03-01T17:13:12;59.44;40.84;77.00;;
63692;Laerm;49838;51.798;10.954;2023-03-01T17:15:41;55.77;43.24;69.13;;
63692;Laerm;49838;51.798;10.954;2023-03-01T17:18:08;58.59;42.92;74.04;;
63692;Laerm;49838;51.798;10.954;2023-03-01T17:20:36;58.53;44.25;78.74;;
63692;Laerm;49838;51.798;10.954;2023-03-01T17:23:04;58.38;41.97;74.05;;
63692;Laerm;49838;51.798;10.954;2023-03-01T17:25:31;57.95;40.37;75.02;;
63692;Laerm;49838;51.798;10.954;2023-03-01T17:27:59;59.61;43.28;75.28;;
63692;Laerm;49838;51.798;10.954;2023-03-01T17:30:26;58.27;43.61;72.57;;
63692;Laerm;49838;51.798;10.954;2023-03-01T17:32:53;56.57;43.51;72.11;;
63692;Laerm;49838;51.798;10.954;2023-03-01T17:35:21;62.60;42.43;80.23;;
63692;Laerm;49838;51.798;10.954;2023-03-01T17:37:49;57.04;42.94;73.01;;
63692;Laerm;49838;51.798;10.954;2023-03-01T17:40:17;59.02;42.74;72.33;;
63692;Laerm;49838;51.798;10.954;2023-03-01T17:42:46;57.33;47.02;72.36;;
63692;Laerm;49838;51.798;10.954;2023-03-01T17:45:13;60.38;44.27;74.68;;
63692;Laerm;49838;51.798;10.954;2023-03-01T17:47:40;54.51;42.19;70.17;;
63692;Laerm;49838;51.798;10.954;2023-03-01T17:50:09;53.77;38.70;69.06;;
63692;Laerm;49838;51.798;10.954;2023-03-01T17:52:37;48.97;40.65;62.51;;
63692;Laerm;49838;51.798;10.954;2023-03-01T17:55:07;56.32;40.68;77.47;;
63692;Laerm;49838;51.798;10.954;2023-03-01T17:57:37;56.91;42.34;74.91;;
63692;Laerm;49838;51.798;10.954;2023-03-01T18:00:11;54.45;41.42;71.72;;
63692;Laerm;49838;51.798;10.954;2023-03-01T18:02:39;57.75;40.85;74.16;;
63692;Laerm;49838;51.798;10.954;2023-03-01T18:05:07;54.77;38.13;71.27;;
63692;Laerm;49838;51.798;10.954;2023-03-01T18:07:35;54.37;41.63;69.51;;
63692;Laerm;49838;51.798;10.954;2023-03-01T18:10:03;57.83;39.23;72.06;;
63692;Laerm;49838;51.798;10.954;2023-03-01T18:12:30;56.33;41.55;72.79;;
63692;Laerm;49838;51.798;10.954;2023-03-01T18:14:59;58.77;42.05;78.33;;
63692;Laerm;49838;51.798;10.954;2023-03-01T18:17:26;53.35;41.14;71.93;;
63692;Laerm;49838;51.798;10.954;2023-03-01T18:19:54;56.48;40.62;76.14;;
63692;Laerm;49838;51.798;10.954;2023-03-01T18:22:22;61.04;43.20;79.07;;
63692;Laerm;49838;51.798;10.954;2023-03-01T18:24:50;52.48;41.80;68.51;;
63692;Laerm;49838;51.798;10.954;2023-03-01T18:27:17;50.91;40.36;71.81;;
63692;Laerm;49838;51.798;10.954;2023-03-01T18:29:45;55.26;42.73;71.01;;
63692;Laerm;49838;51.798;10.954;2023-03-01T18:32:13;59.80;43.09;73.12;;
63692;Laerm;49838;51.798;10.954;2023-03-01T18:34:41;58.90;41.42;77.73;;
63692;Laerm;49838;51.798;10.954;2023-03-01T18:37:08;60.64;41.69;78.78;;
63692;Laerm;49838;51.798;10.954;2023-03-01T18:39:35;52.28;41.22;74.55;;
63692;Laerm;49838;51.798;10.954;2023-03-01T18:42:03;57.34;41.65;73.85;;
63692;Laerm;49838;51.798;10.954;2023-03-01T18:44:30;54.99;40.57;73.11;;
63692;Laerm;49838;51.798;10.954;2023-03-01T18:46:58;55.61;40.33;70.53;;
63692;Laerm;49838;51.798;10.954;2023-03-01T18:49:26;52.06;39.81;66.93;;
63692;Laerm;49838;51.798;10.954;2023-03-01T18:51:53;58.71;40.22;74.82;;
63692;Laerm;49838;51.798;10.954;2023-03-01T18:54:21;46.55;38.73;65.30;;
63692;Laerm;49838;51.798;10.954;2023-03-01T18:56:48;55.20;40.49;75.15;;
63692;Laerm;49838;51.798;10.954;2023-03-01T18:59:16;52.13;40.73;69.32;;
63692;Laerm;49838;51.798;10.954;2023-03-01T19:01:43;56.50;39.46;71.16;;
63692;Laerm;49838;51.798;10.954;2023-03-01T19:04:10;46.39;37.77;68.48;;
63692;Laerm;49838;51.798;10.954;2023-03-01T19:06:39;55.51;39.38;73.46;;
63692;Laerm;49838;51.798;10.954;2023-03-01T19:09:07;49.11;40.86;66.50;;
63692;Laerm;49838;51.798;10.954;2023-03-01T19:11:36;54.04;40.12;67.67;;
63692;Laerm;49838;51.798;10.954;2023-03-01T19:14:04;54.33;43.26;69.76;;
63692;Laerm;49838;51.798;10.954;2023-03-01T19:16:32;57.57;39.54;76.98;;
63692;Laerm;49838;51.798;10.954;2023-03-01T19:19:03;57.01;44.86;75.77;;
63692;Laerm;49838;51.798;10.954;2023-03-01T19:21:33;53.74;43.64;67.93;;
63692;Laerm;49838;51.798;10.954;2023-03-01T19:24:02;55.59;44.14;72.02;;
63692;Laerm;49838;51.798;10.954;2023-03-01T19:26:30;51.28;41.33;69.45;;
63692;Laerm;49838;51.798;10.954;2023-03-01T19:28:58;43.19;37.31;52.38;;
63692;Laerm;49838;51.798;10.954;2023-03-01T19:31:27;45.21;36.39;66.23;;
63692;Laerm;49838;51.798;10.954;2023-03-01T19:33:56;58.56;37.05;78.07;;
63692;Laerm;49838;51.798;10.954;2023-03-01T19:36:24;42.58;36.23;52.15;;
63692;Laerm;49838;51.798;10.954;2023-03-01T19:38:58;55.89;37.45;76.52;;
63692;Laerm;49838;51.798;10.954;2023-03-01T19:41:28;59.08;36.01;78.93;;
63692;Laerm;49838;51.798;10.954;2023-03-01T19:43:55;52.69;37.78;69.96;;
63692;Laerm;49838;51.798;10.954;2023-03-01T19:46:24;44.71;40.16;61.24;;
63692;Laerm;49838;51.798;10.954;2023-03-01T19:48:52;52.11;38.16;67.14;;
63692;Laerm;49838;51.798;10.954;2023-03-01T19:51:19;58.04;37.43;75.75;;
63692;Laerm;49838;51.798;10.954;2023-03-01T19:53:47;51.42;38.56;69.20;;
63692;Laerm;49838;51.798;10.954;2023-03-01T19:56:14;49.93;37.31;66.59;;
63692;Laerm;49838;51.798;10.954;2023-03-01T19:58:43;44.17;35.14;56.35;;
63692;Laerm;49838;51.798;10.954;2023-03-01T20:01:14;56.78;38.38;72.78;;
63692;Laerm;49838;51.798;10.954;2023-03-01T20:03:42;41.95;35.05;51.55;;
63692;Laerm;49838;51.798;10.954;2023-03-01T20:06:13;43.10;35.32;53.50;;
63692;Laerm;49838;51.798;10.954;2023-03-01T20:08:40;45.72;35.65;66.48;;
63692;Laerm;49838;51.798;10.954;2023-03-01T20:11:11;49.45;38.92;65.06;;
63692;Laerm;49838;51.798;10.954;2023-03-01T20:13:39;42.68;36.07;58.42;;
63692;Laerm;49838;51.798;10.954;2023-03-01T20:16:08;51.43;36.02;69.48;;
63692;Laerm;49838;51.798;10.954;2023-03-01T20:18:38;41.10;35.72;49.34;;
63692;Laerm;49838;51.798;10.954;2023-03-01T20:21:06;51.96;37.71;68.60;;
63692;Laerm;49838;51.798;10.954;2023-03-01T20:23:34;52.30;36.98;70.73;;
63692;Laerm;49838;51.798;10.954;2023-03-01T20:26:05;40.71;34.18;49.04;;
63692;Laerm;49838;51.798;10.954;2023-03-01T20:28:35;53.27;35.88;71.33;;
63692;Laerm;49838;51.798;10.954;2023-03-01T20:31:06;53.78;37.96;72.71;;
63692;Laerm;49838;51.798;10.954;2023-03-01T20:33:36;42.30;36.41;56.61;;
63692;Laerm;49838;51.798;10.954;2023-03-01T20:36:04;42.27;36.21;53.12;;
63692;Laerm;49838;51.798;10.954;2023-03-01T20:38:35;39.65;34.15;56.62;;
63692;Laerm;49838;51.798;10.954;2023-03-01T20:41:05;52.71;33.83;71.54;;
63692;Laerm;49838;51.798;10.954;2023-03-01T20:43:33;39.50;32.63;49.69;;
63692;Laerm;49838;51.798;10.954;2023-03-01T20:46:02;46.43;38.51;64.22;;
63692;Laerm;49838;51.798;10.954;2023-03-01T20:48:32;41.91;36.06;48.95;;
63692;Laerm;49838;51.798;10.954;2023-03-01T20:51:05;39.92;33.95;53.68;;
63692;Laerm;49838;51.798;10.954;2023-03-01T20:53:32;42.14;35.86;60.61;;
63692;Laerm;49838;51.798;10.954;2023-03-01T20:56:01;51.19;36.43;70.46;;
63692;Laerm;49838;51.798;10.954;2023-03-01T20:58:29;40.27;33.96;51.10;;
63692;Laerm;49838;51.798;10.954;2023-03-01T21:00:57;39.84;33.55;48.86;;
63692;Laerm;49838;51.798;10.954;2023-03-01T21:03:25;42.61;34.79;62.94;;
63692;Laerm;49838;51.798;10.954;2023-03-01T21:05:54;55.76;34.01;74.57;;
63692;Laerm;49838;51.798;10.954;2023-03-01T21:08:22;41.84;33.52;55.37;;
63692;Laerm;49838;51.798;10.954;2023-03-01T21:10:50;41.15;31.33;59.75;;
63692;Laerm;49838;51.798;10.954;2023-03-01T21:13:18;53.47;33.81;70.88;;
63692;Laerm;49838;51.798;10.954;2023-03-01T21:15:51;53.62;33.66;72.23;;
63692;Laerm;49838;51.798;10.954;2023-03-01T21:18:18;54.57;31.91;71.23;;
63692;Laerm;49838;51.798;10.954;2023-03-01T21:20:45;39.74;31.87;49.03;;
63692;Laerm;49838;51.798;10.954;2023-03-01T21:23:13;42.35;36.17;49.17;;
63692;Laerm;49838;51.798;10.954;2023-03-01T21:25:41;40.30;33.98;49.45;;
63692;Laerm;49838;51.798;10.954;2023-03-01T21:28:10;53.20;32.32;72.53;;
63692;Laerm;49838;51.798;10.954;2023-03-01T21:30:37;37.13;30.59;45.88;;
63692;Laerm;49838;51.798;10.954;2023-03-01T21:33:04;50.91;32.27;64.99;;
63692;Laerm;49838;51.798;10.954;2023-03-01T21:35:33;39.29;32.40;47.49;;
63692;Laerm;49838;51.798;10.954;2023-03-01T21:38:01;39.98;33.28;49.51;;